Procure no Apolo11
Meteógrafos Informações Meteorológicas em tempo real
Aeroporto de Congonhas
01-07-2022 04:56 BRT (UTC-3)

Temperatura atual: ND graus ND F    Umidade relativa: ND %
Velocidade do vento: 04 nós 7 Km/h    Direção: 180 graus S
Ajuste do altímetro ..: ND HPA
Visibilidade: Ruim    Tempo presente: Nevoeiro

Observação
Poucas nuvens a 0 Pés.
Data Hora BRTTempo°CUmidadePressãoVentoVisib.
01/07 - 03:56   Névoa úmida 13° 82% 1021 Sul/1 km/h 5000
01/07 - 02:56   Névoa úmida 13° 82% 1021 Sul-sudoeste/3 km/h 5000
01/07 - 01:56   Não Disponível 14° 82% 1021 Leste/1 km/h 6000
01/07 - 00:56   Não Disponível 14° 82% 1021 Este-nordeste/3 km/h 6000
30/06 - 23:56   Céu Limpo 14° 82% 1021 Este-sudeste/1 km/h OK
30/06 - 22:56   Quase sem nuvens 14° 87% 1021 Sudeste/3 km/h 7000
30/06 - 21:56   Quase sem nuvens 14° 87% 1021 Sul-sudeste/3 km/h 7000
30/06 - 20:56   Céu Limpo 15° 82% 1021 Sul/5 km/h OK
30/06 - 19:56   Céu Limpo 15° 82% 1021 Sul/5 km/h OK
30/06 - 18:56   Céu Limpo 17° 72% 1020 Sul/12 km/h OK
30/06 - 17:56   Céu Limpo 22° 40% 1020 Noroeste/12 km/h CAVO
30/06 - 16:56   Céu Limpo 23° 35% 1020 Noroeste/14 km/h CAVO
30/06 - 15:56   Céu Limpo 23° 35% 1020 Oeste-noroeste/12 km/h CAVO
30/06 - 14:56   Céu Limpo 23° 41% 1020 Noroeste/10 km/h OK
30/06 - 13:56   Céu Limpo 22° 43% 1021 Noroeste/18 km/h OK
30/06 - 12:56   Céu Limpo 22° 43% 1022 Norte-noroeste/18 km/h OK
30/06 - 11:56   Céu Limpo 20° 52% 1022 Norte-noroeste/21 km/h OK
30/06 - 10:56   Céu Limpo 19° 59% 1023 Norte-noroeste/12 km/h OK
30/06 - 09:56   Névoa seca 17° 72% 1022 Norte/3 km/h 5000
30/06 - 08:56   Névoa úmida 15° 82% 1021 /3 km/h 5000
30/06 - 07:56   Névoa úmida 13° 87% 1020 /1 km/h 5000
30/06 - 06:56   Não Disponível 14° 82% 1020 /1 km/h 7000
30/06 - 05:56   Poucas nuvens esparsas 15° 82% 1019 /3 km/h 7000
30/06 - 04:56   Parcialmente Nublado 15° 82% 1020 /1 km/h 7000

Termo de Uso  |   Links Úteis  |   Imprensa  |  Anuncie  |  Fale Conosco  |  Versão Celular  |   Política de Privacidade

Apolo11.com - Todos os direitos reservados - 2000 - 2022

"Na tarefa da política, é necessário falar muitas coisas, pouco das pessoas e nada de si mesmo" - Juan Domingo Peron -